sensor_id;sensor_type;location;lat;lon;timestamp;P1;durP1;ratioP1;P2;durP2;ratioP2
20271;SDS011;10295;49.812;9.866;2023-11-19T00:00:49;26.30;;;10.83;;
20271;SDS011;10295;49.812;9.866;2023-11-19T00:03:19;21.10;;;10.17;;
20271;SDS011;10295;49.812;9.866;2023-11-19T00:05:46;24.60;;;10.27;;
20271;SDS011;10295;49.812;9.866;2023-11-19T00:08:14;23.27;;;10.67;;
20271;SDS011;10295;49.812;9.866;2023-11-19T00:10:41;21.37;;;10.33;;
20271;SDS011;10295;49.812;9.866;2023-11-19T00:13:08;21.73;;;10.67;;
20271;SDS011;10295;49.812;9.866;2023-11-19T00:15:36;26.13;;;11.17;;
20271;SDS011;10295;49.812;9.866;2023-11-19T00:18:03;30.53;;;12.07;;
20271;SDS011;10295;49.812;9.866;2023-11-19T00:20:31;26.97;;;12.33;;
20271;SDS011;10295;49.812;9.866;2023-11-19T00:22:58;38.00;;;13.23;;
20271;SDS011;10295;49.812;9.866;2023-11-19T00:25:25;39.73;;;13.80;;
20271;SDS011;10295;49.812;9.866;2023-11-19T00:27:52;34.20;;;12.80;;
20271;SDS011;10295;49.812;9.866;2023-11-19T00:30:20;31.77;;;12.73;;
20271;SDS011;10295;49.812;9.866;2023-11-19T00:32:48;27.37;;;12.93;;
20271;SDS011;10295;49.812;9.866;2023-11-19T00:35:15;29.40;;;11.90;;
20271;SDS011;10295;49.812;9.866;2023-11-19T00:37:43;23.27;;;11.00;;
20271;SDS011;10295;49.812;9.866;2023-11-19T00:40:12;26.97;;;10.47;;
20271;SDS011;10295;49.812;9.866;2023-11-19T00:42:40;24.10;;;11.20;;
20271;SDS011;10295;49.812;9.866;2023-11-19T00:45:07;24.37;;;10.77;;
20271;SDS011;10295;49.812;9.866;2023-11-19T00:47:36;21.47;;;10.20;;
20271;SDS011;10295;49.812;9.866;2023-11-19T00:50:03;21.40;;;9.90;;
20271;SDS011;10295;49.812;9.866;2023-11-19T00:52:30;20.97;;;10.23;;
20271;SDS011;10295;49.812;9.866;2023-11-19T00:54:58;22.37;;;10.47;;
20271;SDS011;10295;49.812;9.866;2023-11-19T00:57:25;36.83;;;12.27;;
20271;SDS011;10295;49.812;9.866;2023-11-19T00:59:53;22.33;;;11.33;;
20271;SDS011;10295;49.812;9.866;2023-11-19T01:02:20;24.20;;;11.23;;
20271;SDS011;10295;49.812;9.866;2023-11-19T01:04:47;25.73;;;10.73;;
20271;SDS011;10295;49.812;9.866;2023-11-19T01:07:15;21.00;;;9.70;;
20271;SDS011;10295;49.812;9.866;2023-11-19T01:09:42;26.90;;;11.60;;
20271;SDS011;10295;49.812;9.866;2023-11-19T01:12:09;21.63;;;9.70;;
20271;SDS011;10295;49.812;9.866;2023-11-19T01:14:37;26.17;;;11.10;;
20271;SDS011;10295;49.812;9.866;2023-11-19T01:17:04;22.93;;;10.43;;
20271;SDS011;10295;49.812;9.866;2023-11-19T01:19:32;26.17;;;11.27;;
20271;SDS011;10295;49.812;9.866;2023-11-19T01:22:00;21.30;;;10.83;;
20271;SDS011;10295;49.812;9.866;2023-11-19T01:24:27;20.87;;;10.33;;
20271;SDS011;10295;49.812;9.866;2023-11-19T01:26:57;22.77;;;10.90;;
20271;SDS011;10295;49.812;9.866;2023-11-19T01:29:26;23.80;;;10.60;;
20271;SDS011;10295;49.812;9.866;2023-11-19T01:31:53;20.80;;;10.20;;
20271;SDS011;10295;49.812;9.866;2023-11-19T01:34:20;23.17;;;10.70;;
20271;SDS011;10295;49.812;9.866;2023-11-19T01:36:48;23.80;;;10.43;;
20271;SDS011;10295;49.812;9.866;2023-11-19T01:39:15;23.27;;;11.13;;
20271;SDS011;10295;49.812;9.866;2023-11-19T01:41:43;22.77;;;11.80;;
20271;SDS011;10295;49.812;9.866;2023-11-19T01:44:10;24.10;;;11.00;;
20271;SDS011;10295;49.812;9.866;2023-11-19T01:46:40;24.27;;;10.93;;
20271;SDS011;10295;49.812;9.866;2023-11-19T01:49:09;23.27;;;10.93;;
20271;SDS011;10295;49.812;9.866;2023-11-19T01:51:38;17.87;;;8.73;;
20271;SDS011;10295;49.812;9.866;2023-11-19T01:54:06;17.67;;;6.60;;
20271;SDS011;10295;49.812;9.866;2023-11-19T01:56:35;11.50;;;4.70;;
20271;SDS011;10295;49.812;9.866;2023-11-19T01:59:02;9.40;;;4.10;;
20271;SDS011;10295;49.812;9.866;2023-11-19T02:01:29;8.57;;;3.83;;
20271;SDS011;10295;49.812;9.866;2023-11-19T02:03:58;10.00;;;3.50;;
20271;SDS011;10295;49.812;9.866;2023-11-19T02:06:26;8.50;;;3.23;;
20271;SDS011;10295;49.812;9.866;2023-11-19T02:08:54;7.90;;;2.93;;
20271;SDS011;10295;49.812;9.866;2023-11-19T02:11:21;7.20;;;3.13;;
20271;SDS011;10295;49.812;9.866;2023-11-19T02:13:49;6.60;;;2.60;;
20271;SDS011;10295;49.812;9.866;2023-11-19T02:16:16;6.83;;;2.90;;
20271;SDS011;10295;49.812;9.866;2023-11-19T02:18:43;6.83;;;2.80;;
20271;SDS011;10295;49.812;9.866;2023-11-19T02:21:10;8.63;;;2.53;;
20271;SDS011;10295;49.812;9.866;2023-11-19T02:23:38;6.73;;;2.10;;
20271;SDS011;10295;49.812;9.866;2023-11-19T02:26:39;5.50;;;2.17;;
20271;SDS011;10295;49.812;9.866;2023-11-19T02:28:59;5.73;;;2.10;;
20271;SDS011;10295;49.812;9.866;2023-11-19T02:31:26;6.17;;;2.30;;
20271;SDS011;10295;49.812;9.866;2023-11-19T02:33:53;4.27;;;1.83;;
20271;SDS011;10295;49.812;9.866;2023-11-19T02:36:21;4.70;;;1.90;;
20271;SDS011;10295;49.812;9.866;2023-11-19T02:38:48;4.80;;;1.90;;
20271;SDS011;10295;49.812;9.866;2023-11-19T02:41:15;4.27;;;1.80;;
20271;SDS011;10295;49.812;9.866;2023-11-19T02:43:43;6.13;;;1.80;;
20271;SDS011;10295;49.812;9.866;2023-11-19T02:46:10;3.53;;;1.60;;
20271;SDS011;10295;49.812;9.866;2023-11-19T02:48:41;3.70;;;1.40;;
20271;SDS011;10295;49.812;9.866;2023-11-19T02:51:10;3.13;;;1.40;;
20271;SDS011;10295;49.812;9.866;2023-11-19T02:53:38;3.00;;;1.40;;
20271;SDS011;10295;49.812;9.866;2023-11-19T02:56:06;2.87;;;1.30;;
20271;SDS011;10295;49.812;9.866;2023-11-19T02:58:52;3.57;;;1.30;;
20271;SDS011;10295;49.812;9.866;2023-11-19T03:01:25;4.10;;;1.30;;
20271;SDS011;10295;49.812;9.866;2023-11-19T03:03:57;3.07;;;1.20;;
20271;SDS011;10295;49.812;9.866;2023-11-19T03:06:25;3.53;;;1.23;;
20271;SDS011;10295;49.812;9.866;2023-11-19T03:08:54;4.30;;;1.20;;
20271;SDS011;10295;49.812;9.866;2023-11-19T03:11:21;3.03;;;1.33;;
20271;SDS011;10295;49.812;9.866;2023-11-19T03:13:49;3.90;;;1.30;;
20271;SDS011;10295;49.812;9.866;2023-11-19T03:16:16;4.40;;;1.50;;
20271;SDS011;10295;49.812;9.866;2023-11-19T03:18:43;4.93;;;1.50;;
20271;SDS011;10295;49.812;9.866;2023-11-19T03:21:11;2.53;;;1.13;;
20271;SDS011;10295;49.812;9.866;2023-11-19T03:23:38;2.63;;;1.10;;
20271;SDS011;10295;49.812;9.866;2023-11-19T03:26:06;3.37;;;1.20;;
20271;SDS011;10295;49.812;9.866;2023-11-19T03:28:35;2.73;;;1.20;;
20271;SDS011;10295;49.812;9.866;2023-11-19T03:31:05;2.27;;;1.07;;
20271;SDS011;10295;49.812;9.866;2023-11-19T03:33:35;3.23;;;1.27;;
20271;SDS011;10295;49.812;9.866;2023-11-19T03:36:03;4.00;;;1.13;;
20271;SDS011;10295;49.812;9.866;2023-11-19T03:38:31;7.87;;;1.40;;
20271;SDS011;10295;49.812;9.866;2023-11-19T03:40:58;2.70;;;1.30;;
20271;SDS011;10295;49.812;9.866;2023-11-19T03:43:25;2.57;;;1.20;;
20271;SDS011;10295;49.812;9.866;2023-11-19T03:45:53;2.43;;;1.20;;
20271;SDS011;10295;49.812;9.866;2023-11-19T03:48:21;3.53;;;1.23;;
20271;SDS011;10295;49.812;9.866;2023-11-19T03:50:48;2.80;;;1.20;;
20271;SDS011;10295;49.812;9.866;2023-11-19T03:53:15;2.47;;;1.10;;
20271;SDS011;10295;49.812;9.866;2023-11-19T03:55:45;3.40;;;1.30;;
20271;SDS011;10295;49.812;9.866;2023-11-19T03:58:12;2.90;;;1.17;;
20271;SDS011;10295;49.812;9.866;2023-11-19T04:00:39;6.87;;;1.20;;
20271;SDS011;10295;49.812;9.866;2023-11-19T04:03:07;2.10;;;1.00;;
20271;SDS011;10295;49.812;9.866;2023-11-19T04:05:34;1.80;;;0.83;;
20271;SDS011;10295;49.812;9.866;2023-11-19T04:08:01;2.27;;;1.00;;
20271;SDS011;10295;49.812;9.866;2023-11-19T04:10:28;2.20;;;0.90;;
20271;SDS011;10295;49.812;9.866;2023-11-19T04:12:55;2.17;;;1.00;;
20271;SDS011;10295;49.812;9.866;2023-11-19T04:15:23;2.53;;;0.87;;
20271;SDS011;10295;49.812;9.866;2023-11-19T04:17:50;1.80;;;0.90;;
20271;SDS011;10295;49.812;9.866;2023-11-19T04:20:17;4.53;;;1.17;;
20271;SDS011;10295;49.812;9.866;2023-11-19T04:22:44;2.80;;;1.17;;
20271;SDS011;10295;49.812;9.866;2023-11-19T04:25:12;2.13;;;1.00;;
20271;SDS011;10295;49.812;9.866;2023-11-19T04:27:40;1.97;;;1.00;;
20271;SDS011;10295;49.812;9.866;2023-11-19T04:30:07;3.17;;;1.10;;
20271;SDS011;10295;49.812;9.866;2023-11-19T04:32:37;2.10;;;1.03;;
20271;SDS011;10295;49.812;9.866;2023-11-19T04:35:04;3.77;;;1.40;;
20271;SDS011;10295;49.812;9.866;2023-11-19T04:37:33;2.37;;;1.10;;
20271;SDS011;10295;49.812;9.866;2023-11-19T04:40:01;3.30;;;1.50;;
20271;SDS011;10295;49.812;9.866;2023-11-19T04:42:28;2.33;;;1.13;;
20271;SDS011;10295;49.812;9.866;2023-11-19T04:44:55;2.67;;;1.40;;
20271;SDS011;10295;49.812;9.866;2023-11-19T04:47:23;2.50;;;1.20;;
20271;SDS011;10295;49.812;9.866;2023-11-19T04:49:50;2.67;;;1.30;;
20271;SDS011;10295;49.812;9.866;2023-11-19T04:52:17;1.97;;;1.13;;
20271;SDS011;10295;49.812;9.866;2023-11-19T04:54:45;3.67;;;1.53;;
20271;SDS011;10295;49.812;9.866;2023-11-19T04:57:12;3.47;;;1.53;;
20271;SDS011;10295;49.812;9.866;2023-11-19T04:59:39;3.87;;;1.50;;
20271;SDS011;10295;49.812;9.866;2023-11-19T05:02:08;4.07;;;1.60;;
20271;SDS011;10295;49.812;9.866;2023-11-19T05:04:35;8.63;;;1.67;;
20271;SDS011;10295;49.812;9.866;2023-11-19T05:07:04;4.13;;;1.70;;
20271;SDS011;10295;49.812;9.866;2023-11-19T05:09:31;3.63;;;1.60;;
20271;SDS011;10295;49.812;9.866;2023-11-19T05:11:58;5.47;;;1.93;;
20271;SDS011;10295;49.812;9.866;2023-11-19T05:14:25;4.33;;;1.50;;
20271;SDS011;10295;49.812;9.866;2023-11-19T05:16:53;4.63;;;1.60;;
20271;SDS011;10295;49.812;9.866;2023-11-19T05:19:20;4.53;;;1.67;;
20271;SDS011;10295;49.812;9.866;2023-11-19T05:21:47;6.00;;;1.80;;
20271;SDS011;10295;49.812;9.866;2023-11-19T05:24:15;4.43;;;1.83;;
20271;SDS011;10295;49.812;9.866;2023-11-19T05:26:42;4.97;;;2.10;;
20271;SDS011;10295;49.812;9.866;2023-11-19T05:29:09;6.53;;;2.20;;
20271;SDS011;10295;49.812;9.866;2023-11-19T05:31:37;7.07;;;1.90;;
20271;SDS011;10295;49.812;9.866;2023-11-19T05:34:05;5.40;;;1.90;;
20271;SDS011;10295;49.812;9.866;2023-11-19T05:36:33;5.50;;;1.90;;
20271;SDS011;10295;49.812;9.866;2023-11-19T05:39:00;4.30;;;1.80;;
20271;SDS011;10295;49.812;9.866;2023-11-19T05:41:29;4.50;;;1.83;;
20271;SDS011;10295;49.812;9.866;2023-11-19T05:43:56;4.70;;;2.00;;
20271;SDS011;10295;49.812;9.866;2023-11-19T05:46:23;4.50;;;1.80;;
20271;SDS011;10295;49.812;9.866;2023-11-19T05:48:52;4.60;;;1.80;;
20271;SDS011;10295;49.812;9.866;2023-11-19T05:51:19;4.00;;;1.63;;
20271;SDS011;10295;49.812;9.866;2023-11-19T05:53:46;4.43;;;1.70;;
20271;SDS011;10295;49.812;9.866;2023-11-19T05:56:13;4.27;;;1.67;;
20271;SDS011;10295;49.812;9.866;2023-11-19T05:58:42;4.17;;;1.67;;
20271;SDS011;10295;49.812;9.866;2023-11-19T06:01:11;3.90;;;1.40;;
20271;SDS011;10295;49.812;9.866;2023-11-19T06:03:38;3.20;;;1.40;;
20271;SDS011;10295;49.812;9.866;2023-11-19T06:06:06;3.87;;;1.53;;
20271;SDS011;10295;49.812;9.866;2023-11-19T06:08:33;3.00;;;1.20;;
20271;SDS011;10295;49.812;9.866;2023-11-19T06:11:00;2.43;;;1.13;;
20271;SDS011;10295;49.812;9.866;2023-11-19T06:13:28;2.83;;;1.40;;
20271;SDS011;10295;49.812;9.866;2023-11-19T06:15:57;4.03;;;1.33;;
20271;SDS011;10295;49.812;9.866;2023-11-19T06:18:25;4.00;;;1.23;;
20271;SDS011;10295;49.812;9.866;2023-11-19T06:20:52;3.53;;;1.30;;
20271;SDS011;10295;49.812;9.866;2023-11-19T06:23:19;2.63;;;1.23;;
20271;SDS011;10295;49.812;9.866;2023-11-19T06:25:47;2.93;;;1.23;;
20271;SDS011;10295;49.812;9.866;2023-11-19T06:28:14;4.00;;;1.37;;
20271;SDS011;10295;49.812;9.866;2023-11-19T06:30:41;3.40;;;1.33;;
20271;SDS011;10295;49.812;9.866;2023-11-19T06:33:14;4.83;;;1.30;;
20271;SDS011;10295;49.812;9.866;2023-11-19T06:35:41;3.13;;;1.20;;
20271;SDS011;10295;49.812;9.866;2023-11-19T06:38:08;2.37;;;1.20;;
20271;SDS011;10295;49.812;9.866;2023-11-19T06:40:36;1.87;;;1.10;;
20271;SDS011;10295;49.812;9.866;2023-11-19T06:43:03;3.37;;;1.30;;
20271;SDS011;10295;49.812;9.866;2023-11-19T06:45:31;3.83;;;1.20;;
20271;SDS011;10295;49.812;9.866;2023-11-19T06:48:00;2.83;;;1.03;;
20271;SDS011;10295;49.812;9.866;2023-11-19T06:50:30;4.47;;;1.10;;
20271;SDS011;10295;49.812;9.866;2023-11-19T06:52:57;4.20;;;1.20;;
20271;SDS011;10295;49.812;9.866;2023-11-19T06:55:24;4.50;;;1.50;;
20271;SDS011;10295;49.812;9.866;2023-11-19T06:57:51;2.17;;;0.90;;
20271;SDS011;10295;49.812;9.866;2023-11-19T07:00:18;4.43;;;1.20;;
20271;SDS011;10295;49.812;9.866;2023-11-19T07:02:46;3.40;;;1.00;;
20271;SDS011;10295;49.812;9.866;2023-11-19T07:05:13;1.53;;;0.90;;
20271;SDS011;10295;49.812;9.866;2023-11-19T07:07:41;3.90;;;1.13;;
20271;SDS011;10295;49.812;9.866;2023-11-19T07:10:08;3.40;;;1.10;;
20271;SDS011;10295;49.812;9.866;2023-11-19T07:12:36;3.47;;;1.10;;
20271;SDS011;10295;49.812;9.866;2023-11-19T07:15:04;3.20;;;1.20;;
20271;SDS011;10295;49.812;9.866;2023-11-19T07:17:31;2.97;;;1.20;;
20271;SDS011;10295;49.812;9.866;2023-11-19T07:19:59;2.90;;;1.13;;
20271;SDS011;10295;49.812;9.866;2023-11-19T07:22:26;4.00;;;1.13;;
20271;SDS011;10295;49.812;9.866;2023-11-19T07:24:56;5.67;;;1.37;;
20271;SDS011;10295;49.812;9.866;2023-11-19T07:27:23;2.33;;;1.00;;
20271;SDS011;10295;49.812;9.866;2023-11-19T07:29:50;3.27;;;1.20;;
20271;SDS011;10295;49.812;9.866;2023-11-19T07:32:18;3.20;;;1.13;;
20271;SDS011;10295;49.812;9.866;2023-11-19T07:34:45;3.53;;;1.10;;
20271;SDS011;10295;49.812;9.866;2023-11-19T07:37:12;3.67;;;1.33;;
20271;SDS011;10295;49.812;9.866;2023-11-19T07:39:39;3.07;;;1.20;;
20271;SDS011;10295;49.812;9.866;2023-11-19T07:42:07;2.67;;;1.20;;
20271;SDS011;10295;49.812;9.866;2023-11-19T07:44:36;2.93;;;1.20;;
20271;SDS011;10295;49.812;9.866;2023-11-19T07:47:03;4.03;;;1.20;;
20271;SDS011;10295;49.812;9.866;2023-11-19T07:49:30;3.27;;;1.20;;
20271;SDS011;10295;49.812;9.866;2023-11-19T07:51:58;2.87;;;1.10;;
20271;SDS011;10295;49.812;9.866;2023-11-19T07:54:25;2.87;;;1.03;;
20271;SDS011;10295;49.812;9.866;2023-11-19T07:56:53;1.93;;;1.10;;
20271;SDS011;10295;49.812;9.866;2023-11-19T07:59:20;2.27;;;1.10;;
20271;SDS011;10295;49.812;9.866;2023-11-19T08:01:47;7.07;;;1.20;;
20271;SDS011;10295;49.812;9.866;2023-11-19T08:04:14;2.07;;;0.97;;
20271;SDS011;10295;49.812;9.866;2023-11-19T08:06:42;2.90;;;1.10;;
20271;SDS011;10295;49.812;9.866;2023-11-19T08:09:09;2.63;;;0.97;;
20271;SDS011;10295;49.812;9.866;2023-11-19T08:11:40;4.37;;;1.60;;
20271;SDS011;10295;49.812;9.866;2023-11-19T08:14:08;5.37;;;1.80;;
20271;SDS011;10295;49.812;9.866;2023-11-19T08:16:35;6.20;;;2.50;;
20271;SDS011;10295;49.812;9.866;2023-11-19T08:19:04;5.50;;;2.00;;
20271;SDS011;10295;49.812;9.866;2023-11-19T08:21:31;6.90;;;2.20;;
20271;SDS011;10295;49.812;9.866;2023-11-19T08:23:58;4.67;;;1.90;;
20271;SDS011;10295;49.812;9.866;2023-11-19T08:26:25;4.73;;;1.90;;
20271;SDS011;10295;49.812;9.866;2023-11-19T08:28:53;7.63;;;2.70;;
20271;SDS011;10295;49.812;9.866;2023-11-19T08:31:20;8.03;;;2.70;;
20271;SDS011;10295;49.812;9.866;2023-11-19T08:33:47;6.03;;;2.23;;
20271;SDS011;10295;49.812;9.866;2023-11-19T08:36:15;6.03;;;2.33;;
20271;SDS011;10295;49.812;9.866;2023-11-19T08:38:43;8.27;;;4.00;;
20271;SDS011;10295;49.812;9.866;2023-11-19T08:41:10;36.50;;;4.97;;
20271;SDS011;10295;49.812;9.866;2023-11-19T08:43:37;5.60;;;2.30;;
20271;SDS011;10295;49.812;9.866;2023-11-19T08:46:09;5.33;;;2.07;;
20271;SDS011;10295;49.812;9.866;2023-11-19T08:48:37;6.07;;;1.83;;
20271;SDS011;10295;49.812;9.866;2023-11-19T08:51:04;4.27;;;1.40;;
20271;SDS011;10295;49.812;9.866;2023-11-19T08:53:31;6.00;;;1.90;;
20271;SDS011;10295;49.812;9.866;2023-11-19T08:55:59;5.13;;;1.80;;
20271;SDS011;10295;49.812;9.866;2023-11-19T08:58:29;5.00;;;1.70;;
20271;SDS011;10295;49.812;9.866;2023-11-19T09:00:57;4.83;;;1.30;;
20271;SDS011;10295;49.812;9.866;2023-11-19T09:03:24;5.47;;;1.20;;
20271;SDS011;10295;49.812;9.866;2023-11-19T09:05:56;5.60;;;1.13;;
20271;SDS011;10295;49.812;9.866;2023-11-19T09:08:23;3.10;;;1.03;;
20271;SDS011;10295;49.812;9.866;2023-11-19T09:10:51;5.47;;;1.50;;
20271;SDS011;10295;49.812;9.866;2023-11-19T09:13:18;4.93;;;1.07;;
20271;SDS011;10295;49.812;9.866;2023-11-19T09:15:45;2.27;;;0.93;;
20271;SDS011;10295;49.812;9.866;2023-11-19T09:18:12;4.70;;;1.33;;
20271;SDS011;10295;49.812;9.866;2023-11-19T09:20:40;6.82;;;1.80;;
20271;SDS011;10295;49.812;9.866;2023-11-19T09:23:07;6.05;;;1.40;;
20271;SDS011;10295;49.812;9.866;2023-11-19T09:25:35;7.03;;;1.90;;
20271;SDS011;10295;49.812;9.866;2023-11-19T09:28:05;5.43;;;1.50;;
20271;SDS011;10295;49.812;9.866;2023-11-19T09:30:35;4.10;;;1.17;;
20271;SDS011;10295;49.812;9.866;2023-11-19T09:33:02;3.88;;;1.40;;
20271;SDS011;10295;49.812;9.866;2023-11-19T09:35:29;5.35;;;1.30;;
20271;SDS011;10295;49.812;9.866;2023-11-19T09:37:56;8.85;;;1.65;;
20271;SDS011;10295;49.812;9.866;2023-11-19T09:40:26;6.50;;;1.52;;
20271;SDS011;10295;49.812;9.866;2023-11-19T09:42:54;5.93;;;1.10;;
20271;SDS011;10295;49.812;9.866;2023-11-19T09:45:21;6.28;;;1.48;;
20271;SDS011;10295;49.812;9.866;2023-11-19T09:47:51;4.93;;;1.10;;
20271;SDS011;10295;49.812;9.866;2023-11-19T09:50:19;5.80;;;1.48;;
20271;SDS011;10295;49.812;9.866;2023-11-19T09:52:47;8.30;;;1.50;;
20271;SDS011;10295;49.812;9.866;2023-11-19T09:55:14;4.72;;;1.20;;
20271;SDS011;10295;49.812;9.866;2023-11-19T09:57:42;7.07;;;1.35;;
20271;SDS011;10295;49.812;9.866;2023-11-19T10:00:10;3.87;;;1.13;;
20271;SDS011;10295;49.812;9.866;2023-11-19T10:02:39;6.57;;;1.30;;
20271;SDS011;10295;49.812;9.866;2023-11-19T10:05:07;5.73;;;1.23;;
20271;SDS011;10295;49.812;9.866;2023-11-19T10:07:34;7.73;;;1.23;;
20271;SDS011;10295;49.812;9.866;2023-11-19T10:10:02;4.73;;;1.20;;
20271;SDS011;10295;49.812;9.866;2023-11-19T10:12:30;7.70;;;1.40;;
20271;SDS011;10295;49.812;9.866;2023-11-19T10:14:57;5.67;;;1.40;;
20271;SDS011;10295;49.812;9.866;2023-11-19T10:17:28;10.27;;;1.50;;
20271;SDS011;10295;49.812;9.866;2023-11-19T10:19:56;7.90;;;1.50;;
20271;SDS011;10295;49.812;9.866;2023-11-19T10:22:23;7.80;;;1.50;;
20271;SDS011;10295;49.812;9.866;2023-11-19T10:24:51;6.93;;;1.30;;
20271;SDS011;10295;49.812;9.866;2023-11-19T10:27:23;7.90;;;1.50;;
20271;SDS011;10295;49.812;9.866;2023-11-19T10:29:52;6.73;;;1.40;;
20271;SDS011;10295;49.812;9.866;2023-11-19T10:32:19;7.13;;;1.33;;
20271;SDS011;10295;49.812;9.866;2023-11-19T10:34:52;5.90;;;1.30;;
20271;SDS011;10295;49.812;9.866;2023-11-19T10:37:32;5.63;;;1.17;;
20271;SDS011;10295;49.812;9.866;2023-11-19T10:40:01;6.67;;;1.30;;
20271;SDS011;10295;49.812;9.866;2023-11-19T10:42:31;7.70;;;1.77;;
20271;SDS011;10295;49.812;9.866;2023-11-19T10:44:58;15.00;;;6.60;;
20271;SDS011;10295;49.812;9.866;2023-11-19T10:47:25;6.57;;;1.40;;
20271;SDS011;10295;49.812;9.866;2023-11-19T10:49:57;7.97;;;2.07;;
20271;SDS011;10295;49.812;9.866;2023-11-19T10:52:25;7.23;;;1.40;;
20271;SDS011;10295;49.812;9.866;2023-11-19T10:54:54;4.90;;;1.30;;
20271;SDS011;10295;49.812;9.866;2023-11-19T10:57:22;3.83;;;1.20;;
20271;SDS011;10295;49.812;9.866;2023-11-19T10:59:52;6.20;;;1.00;;
20271;SDS011;10295;49.812;9.866;2023-11-19T11:02:23;5.60;;;1.27;;
20271;SDS011;10295;49.812;9.866;2023-11-19T11:04:51;4.07;;;1.30;;
20271;SDS011;10295;49.812;9.866;2023-11-19T11:07:20;4.20;;;1.20;;
20271;SDS011;10295;49.812;9.866;2023-11-19T11:10:05;6.63;;;1.40;;
20271;SDS011;10295;49.812;9.866;2023-11-19T11:12:34;4.47;;;1.50;;
20271;SDS011;10295;49.812;9.866;2023-11-19T11:15:04;8.00;;;1.50;;
20271;SDS011;10295;49.812;9.866;2023-11-19T11:17:31;6.60;;;1.37;;
20271;SDS011;10295;49.812;9.866;2023-11-19T11:20:00;6.40;;;1.73;;
20271;SDS011;10295;49.812;9.866;2023-11-19T11:22:29;9.73;;;1.57;;
20271;SDS011;10295;49.812;9.866;2023-11-19T11:25:08;5.03;;;1.40;;
20271;SDS011;10295;49.812;9.866;2023-11-19T11:35:50;6.73;;;1.20;;
20271;SDS011;10295;49.812;9.866;2023-11-19T11:38:21;9.37;;;4.40;;
20271;SDS011;10295;49.812;9.866;2023-11-19T11:41:14;6.47;;;2.00;;
20271;SDS011;10295;49.812;9.866;2023-11-19T11:43:48;5.80;;;1.40;;
20271;SDS011;10295;49.812;9.866;2023-11-19T11:49:16;5.70;;;1.35;;
20271;SDS011;10295;49.812;9.866;2023-11-19T11:51:58;7.25;;;1.00;;
20271;SDS011;10295;49.812;9.866;2023-11-19T11:54:26;4.18;;;1.13;;
20271;SDS011;10295;49.812;9.866;2023-11-19T11:57:07;2.20;;;0.90;;
20271;SDS011;10295;49.812;9.866;2023-11-19T12:02:12;8.40;;;1.30;;
20271;SDS011;10295;49.812;9.866;2023-11-19T12:04:39;5.20;;;1.10;;
20271;SDS011;10295;49.812;9.866;2023-11-19T12:07:14;6.80;;;1.30;;
20271;SDS011;10295;49.812;9.866;2023-11-19T12:09:52;7.33;;;1.53;;
20271;SDS011;10295;49.812;9.866;2023-11-19T12:12:21;7.00;;;1.20;;
20271;SDS011;10295;49.812;9.866;2023-11-19T12:17:41;7.57;;;1.30;;
20271;SDS011;10295;49.812;9.866;2023-11-19T12:20:11;5.83;;;1.20;;
20271;SDS011;10295;49.812;9.866;2023-11-19T12:22:38;8.93;;;1.30;;
20271;SDS011;10295;49.812;9.866;2023-11-19T12:25:06;9.63;;;1.20;;
20271;SDS011;10295;49.812;9.866;2023-11-19T12:27:35;6.73;;;1.27;;
20271;SDS011;10295;49.812;9.866;2023-11-19T12:30:03;5.00;;;1.13;;
20271;SDS011;10295;49.812;9.866;2023-11-19T12:32:40;5.27;;;1.20;;
20271;SDS011;10295;49.812;9.866;2023-11-19T12:35:08;6.37;;;1.30;;
20271;SDS011;10295;49.812;9.866;2023-11-19T12:37:47;4.67;;;1.13;;
20271;SDS011;10295;49.812;9.866;2023-11-19T12:40:18;6.83;;;1.40;;
20271;SDS011;10295;49.812;9.866;2023-11-19T12:45:14;7.23;;;1.50;;
20271;SDS011;10295;49.812;9.866;2023-11-19T12:47:45;6.73;;;1.40;;
20271;SDS011;10295;49.812;9.866;2023-11-19T12:50:17;7.93;;;1.73;;
20271;SDS011;10295;49.812;9.866;2023-11-19T12:52:55;8.70;;;1.40;;
20271;SDS011;10295;49.812;9.866;2023-11-19T12:55:26;5.97;;;1.40;;
20271;SDS011;10295;49.812;9.866;2023-11-19T12:57:56;9.17;;;1.40;;
20271;SDS011;10295;49.812;9.866;2023-11-19T13:00:25;6.00;;;1.50;;
20271;SDS011;10295;49.812;9.866;2023-11-19T13:02:53;9.03;;;1.80;;
20271;SDS011;10295;49.812;9.866;2023-11-19T13:05:31;9.65;;;1.48;;
20271;SDS011;10295;49.812;9.866;2023-11-19T13:08:02;8.73;;;1.50;;
20271;SDS011;10295;49.812;9.866;2023-11-19T13:10:31;9.07;;;1.60;;
20271;SDS011;10295;49.812;9.866;2023-11-19T13:13:02;7.07;;;1.25;;
20271;SDS011;10295;49.812;9.866;2023-11-19T13:15:30;11.32;;;1.58;;
20271;SDS011;10295;49.812;9.866;2023-11-19T13:17:58;4.18;;;1.08;;
20271;SDS011;10295;49.812;9.866;2023-11-19T13:20:26;6.07;;;1.30;;
20271;SDS011;10295;49.812;9.866;2023-11-19T13:23:03;8.73;;;1.35;;
20271;SDS011;10295;49.812;9.866;2023-11-19T13:25:31;9.32;;;1.67;;
20271;SDS011;10295;49.812;9.866;2023-11-19T13:27:58;7.45;;;1.40;;
20271;SDS011;10295;49.812;9.866;2023-11-19T13:30:26;6.70;;;1.10;;
20271;SDS011;10295;49.812;9.866;2023-11-19T13:32:53;8.27;;;1.42;;
20271;SDS011;10295;49.812;9.866;2023-11-19T13:35:22;4.32;;;1.10;;
20271;SDS011;10295;49.812;9.866;2023-11-19T13:37:49;6.60;;;1.40;;
20271;SDS011;10295;49.812;9.866;2023-11-19T13:40:18;7.47;;;1.33;;
20271;SDS011;10295;49.812;9.866;2023-11-19T13:42:46;6.30;;;1.30;;
20271;SDS011;10295;49.812;9.866;2023-11-19T13:45:13;6.93;;;1.40;;
20271;SDS011;10295;49.812;9.866;2023-11-19T13:47:45;6.97;;;1.20;;
20271;SDS011;10295;49.812;9.866;2023-11-19T13:50:13;7.95;;;1.38;;
20271;SDS011;10295;49.812;9.866;2023-11-19T13:52:42;10.15;;;1.20;;
20271;SDS011;10295;49.812;9.866;2023-11-19T13:55:11;6.67;;;1.33;;
20271;SDS011;10295;49.812;9.866;2023-11-19T13:57:39;9.70;;;1.27;;
20271;SDS011;10295;49.812;9.866;2023-11-19T14:00:07;9.63;;;1.37;;
20271;SDS011;10295;49.812;9.866;2023-11-19T14:02:42;8.33;;;1.30;;
20271;SDS011;10295;49.812;9.866;2023-11-19T14:05:10;6.67;;;1.37;;
20271;SDS011;10295;49.812;9.866;2023-11-19T14:07:37;5.57;;;1.20;;
20271;SDS011;10295;49.812;9.866;2023-11-19T14:10:05;12.97;;;1.60;;
20271;SDS011;10295;49.812;9.866;2023-11-19T14:12:33;7.28;;;1.17;;
20271;SDS011;10295;49.812;9.866;2023-11-19T14:15:00;8.60;;;1.40;;
20271;SDS011;10295;49.812;9.866;2023-11-19T14:17:27;8.77;;;1.30;;
20271;SDS011;10295;49.812;9.866;2023-11-19T14:19:54;9.90;;;1.43;;
20271;SDS011;10295;49.812;9.866;2023-11-19T14:22:21;7.07;;;1.23;;
20271;SDS011;10295;49.812;9.866;2023-11-19T14:24:49;9.20;;;1.40;;
20271;SDS011;10295;49.812;9.866;2023-11-19T14:27:16;13.20;;;1.63;;
20271;SDS011;10295;49.812;9.866;2023-11-19T14:29:44;7.23;;;1.40;;
20271;SDS011;10295;49.812;9.866;2023-11-19T14:32:11;9.87;;;1.70;;
20271;SDS011;10295;49.812;9.866;2023-11-19T14:34:38;8.77;;;1.67;;
20271;SDS011;10295;49.812;9.866;2023-11-19T14:37:05;11.37;;;1.80;;
20271;SDS011;10295;49.812;9.866;2023-11-19T14:39:33;8.93;;;1.50;;
20271;SDS011;10295;49.812;9.866;2023-11-19T14:42:00;11.17;;;1.80;;
20271;SDS011;10295;49.812;9.866;2023-11-19T14:44:30;12.43;;;1.90;;
20271;SDS011;10295;49.812;9.866;2023-11-19T14:46:58;9.50;;;1.47;;
20271;SDS011;10295;49.812;9.866;2023-11-19T14:49:28;10.50;;;1.50;;
20271;SDS011;10295;49.812;9.866;2023-11-19T14:51:55;10.83;;;1.60;;
20271;SDS011;10295;49.812;9.866;2023-11-19T14:54:22;9.10;;;1.53;;
20271;SDS011;10295;49.812;9.866;2023-11-19T14:56:50;11.03;;;1.50;;
20271;SDS011;10295;49.812;9.866;2023-11-19T14:59:18;10.97;;;1.57;;
20271;SDS011;10295;49.812;9.866;2023-11-19T15:01:45;10.07;;;1.57;;
20271;SDS011;10295;49.812;9.866;2023-11-19T15:04:12;11.40;;;1.60;;
20271;SDS011;10295;49.812;9.866;2023-11-19T15:06:40;8.43;;;1.57;;
20271;SDS011;10295;49.812;9.866;2023-11-19T15:09:07;11.73;;;1.90;;